createdAt,value
2022-09-18T00:00:49.858Z,99913.06
2022-09-18T00:03:17.385Z,99909.69
2022-09-18T00:05:44.831Z,99914.69
2022-09-18T00:08:12.287Z,99911.38
2022-09-18T00:10:42.740Z,99913.06
2022-09-18T00:13:11.439Z,99911.72
2022-09-18T00:15:38.836Z,99915.03
2022-09-18T00:18:06.367Z,99915.03
2022-09-18T00:20:34.540Z,99918.72
2022-09-18T00:23:01.946Z,99913.72
2022-09-18T00:25:29.370Z,99920.56
2022-09-18T00:27:56.804Z,99921.41
2022-09-18T00:30:25.487Z,99915.41
2022-09-18T00:32:52.878Z,99925.72
2022-09-18T00:35:20.279Z,99919.72
2022-09-18T00:37:47.756Z,99915.41
2022-09-18T00:40:15.512Z,99920.75
2022-09-18T00:42:42.997Z,99917.41
2022-09-18T00:45:10.745Z,99918.72
2022-09-18T00:47:41.951Z,99927.72
2022-09-18T00:50:11.267Z,99924.41
2022-09-18T00:52:45.224Z,99923.59
2022-09-18T00:55:12.682Z,99916.56
2022-09-18T00:57:42.705Z,99926.09
2022-09-18T01:00:12.321Z,99915.41
2022-09-18T01:02:41.237Z,99914.91
2022-09-18T01:05:09.439Z,99926.09
2022-09-18T01:07:44.643Z,99923.59
2022-09-18T01:10:18.449Z,99923.41
2022-09-18T01:12:47.215Z,99925.22
2022-09-18T01:15:17.330Z,99931.41
2022-09-18T01:17:48.319Z,99928.25
2022-09-18T01:20:30.983Z,99924.75
2022-09-18T01:23:12.302Z,99924.56
2022-09-18T01:25:41.956Z,99937.09
2022-09-18T01:28:15.525Z,99920.25
2022-09-18T01:30:44.575Z,99927.41
2022-09-18T01:33:15.104Z,99933.78
2022-09-18T01:35:44.318Z,99925.75
2022-09-18T01:38:14.275Z,99931.94
2022-09-18T01:40:45.107Z,99936.44
2022-09-18T01:43:15.236Z,99932.09
2022-09-18T01:45:44.256Z,99934.59
2022-09-18T01:48:15.705Z,99930.94
2022-09-18T01:50:44.867Z,99937.91
2022-09-18T01:53:14.261Z,99937.09
2022-09-18T01:55:44.493Z,99939.09
2022-09-18T01:58:17.283Z,99941.13
2022-09-18T02:00:46.694Z,99937.25
2022-09-18T02:03:15.254Z,99943.59
2022-09-18T02:05:44.222Z,99940.75
2022-09-18T02:08:16.282Z,99944.44
2022-09-18T02:10:46.133Z,99950.63
2022-09-18T02:13:17.310Z,99948.94
2022-09-18T02:15:44.776Z,99951.81
2022-09-18T02:18:16.715Z,99956.28
2022-09-18T02:20:44.949Z,99950.09
2022-09-18T02:23:12.414Z,99947.41
2022-09-18T02:25:45.055Z,99950.94
2022-09-18T02:28:12.552Z,99950.94
2022-09-18T02:30:41.342Z,99951.81
2022-09-18T02:33:24.316Z,99950.25
2022-09-18T02:35:55.252Z,99946.47
2022-09-18T02:38:25.268Z,99947.41
2022-09-18T02:40:57.589Z,99954.28
2022-09-18T02:43:31.726Z,99948.41
2022-09-18T02:46:04.956Z,99957.97
2022-09-18T02:48:43.077Z,99950.94
2022-09-18T02:51:12.744Z,99964.44
2022-09-18T02:53:42.860Z,99954.59
2022-09-18T02:56:12.418Z,99968.78
2022-09-18T02:58:42.647Z,99965.28
2022-09-18T03:01:12.174Z,99969.78
2022-09-18T03:03:40.931Z,99966.44
2022-09-18T03:06:10.780Z,99969.78
2022-09-18T03:08:38.618Z,99969.94
2022-09-18T03:11:06.528Z,99968.28
2022-09-18T03:13:34.600Z,99972.59
2022-09-18T03:16:03.719Z,99978.97
2022-09-18T03:18:32.466Z,99980.81
2022-09-18T03:21:00.507Z,99982.47
2022-09-18T03:23:28.096Z,99988.63
2022-09-18T03:26:06.781Z,99981.63
2022-09-18T03:28:34.540Z,99986.16
2022-09-18T03:31:02.557Z,99990.63
2022-09-18T03:33:33.056Z,99997.81
2022-09-18T03:36:00.468Z,100001.31
2022-09-18T03:38:27.878Z,100003.31
2022-09-18T03:40:57.718Z,100004.84
2022-09-18T03:43:25.240Z,100001.81
2022-09-18T03:45:52.774Z,100000.50
2022-09-18T03:48:20.837Z,100001.31
2022-09-18T03:50:49.938Z,100011.16
2022-09-18T03:53:17.421Z,100010.50
2022-09-18T03:56:13.035Z,100011.50
2022-09-18T03:59:00.101Z,100018.53
2022-09-18T04:01:37.418Z,100018.53
2022-09-18T04:04:23.368Z,100022.19
2022-09-18T04:07:12.039Z,100019.50
2022-09-18T04:09:39.918Z,100034.53
2022-09-18T04:12:07.621Z,100034.53
2022-09-18T04:14:35.227Z,100023.00
2022-09-18T04:17:02.658Z,100033.69
2022-09-18T04:19:30.736Z,100036.53
2022-09-18T04:21:58.959Z,100038.19
2022-09-18T04:24:28.149Z,100040.03
2022-09-18T04:26:55.783Z,100035.53
2022-09-18T04:29:25.556Z,100041.69
2022-09-18T04:31:53.067Z,100037.38
2022-09-18T04:34:22.406Z,100045.53
2022-09-18T04:36:49.825Z,100051.53
2022-09-18T04:39:17.323Z,100053.38
2022-09-18T04:41:46.310Z,100055.22
2022-09-18T04:44:15.052Z,100047.22
2022-09-18T04:46:43.522Z,100052.56
2022-09-18T04:49:11.387Z,100057.91
2022-09-18T04:51:39.091Z,100054.38
2022-09-18T04:54:06.499Z,100053.72
2022-09-18T04:56:37.330Z,100055.41
2022-09-18T04:59:06.173Z,100064.22
2022-09-18T05:01:35.208Z,100073.22
2022-09-18T05:04:08.756Z,100071.41
2022-09-18T05:06:45.396Z,100075.22
2022-09-18T05:09:12.796Z,100068.91
2022-09-18T05:11:40.205Z,100073.38
2022-09-18T05:14:08.892Z,100065.38
2022-09-18T05:16:36.436Z,100074.91
2022-09-18T05:19:33.018Z,100075.91
2022-09-18T05:22:05.702Z,100080.25
2022-09-18T05:24:36.721Z,100092.06
2022-09-18T05:27:04.559Z,100076.91
2022-09-18T05:29:33.268Z,100091.91
2022-09-18T05:32:09.956Z,100084.06
2022-09-18T05:34:38.296Z,100094.75
2022-09-18T05:37:07.256Z,100090.25
2022-09-18T05:39:34.669Z,100090.41
2022-09-18T05:42:03.866Z,100092.25
2022-09-18T05:44:32.546Z,100095.91
2022-09-18T05:47:00.128Z,100099.25
2022-09-18T05:49:28.325Z,100099.25
2022-09-18T05:51:57.015Z,100104.59
2022-09-18T05:54:24.457Z,100106.59
2022-09-18T05:56:52.545Z,100108.94
2022-09-18T05:59:20.003Z,100109.09
2022-09-18T06:01:50.463Z,100116.09
2022-09-18T06:04:34.235Z,100111.94
2022-09-18T06:07:06.073Z,100112.59
2022-09-18T06:09:33.541Z,100119.63
2022-09-18T06:12:00.934Z,100114.59
2022-09-18T06:14:28.409Z,100115.44
2022-09-18T06:17:00.143Z,100118.97
2022-09-18T06:19:27.594Z,100117.94
2022-09-18T06:21:55.649Z,100130.31
2022-09-18T06:24:23.152Z,100118.97
2022-09-18T06:27:07.888Z,100122.28
2022-09-18T06:29:35.553Z,100119.78
2022-09-18T06:32:10.769Z,100123.94
2022-09-18T06:34:39.913Z,100123.81
2022-09-18T06:37:10.287Z,100126.31
2022-09-18T06:39:58.046Z,100124.00
2022-09-18T06:42:55.984Z,100136.53
2022-09-18T06:45:37.551Z,100138.53
2022-09-18T06:48:07.612Z,100137.38
2022-09-18T06:50:37.775Z,100133.69
2022-09-18T06:53:10.070Z,100137.38
2022-09-18T06:55:42.466Z,100135.69
2022-09-18T06:58:09.962Z,100134.88
2022-09-18T07:00:37.480Z,100138.53
2022-09-18T07:03:04.973Z,100138.22
2022-09-18T07:05:52.152Z,100143.56
2022-09-18T07:08:32.225Z,100142.03
2022-09-18T07:11:10.175Z,100147.72
2022-09-18T07:13:39.463Z,100143.06
2022-09-18T07:16:07.044Z,100145.72
2022-09-18T07:18:34.617Z,100158.56
2022-09-18T07:21:05.248Z,100151.91
2022-09-18T07:23:37.296Z,100153.06
2022-09-18T07:26:05.008Z,100153.22
2022-09-18T07:28:33.920Z,100150.06
2022-09-18T07:31:10.108Z,100153.72
2022-09-18T07:33:37.591Z,100158.25
2022-09-18T07:36:06.702Z,100151.75
2022-09-18T07:38:37.433Z,100152.75
2022-09-18T07:41:05.041Z,100155.09
2022-09-18T07:43:34.229Z,100151.75
2022-09-18T07:46:02.420Z,100158.75
2022-09-18T07:48:32.807Z,100157.09
2022-09-18T07:51:11.413Z,100162.59
2022-09-18T07:53:41.094Z,100154.75
2022-09-18T07:56:09.764Z,100152.75
2022-09-18T07:58:37.290Z,100147.41
2022-09-18T08:01:06.786Z,100143.72
2022-09-18T08:03:41.714Z,100153.41
2022-09-18T08:06:13.609Z,100154.72
2022-09-18T08:08:55.411Z,100154.94
2022-09-18T08:11:46.030Z,100166.28
2022-09-18T08:14:36.368Z,100162.25
2022-09-18T08:17:14.521Z,100157.06
2022-09-18T08:20:01.997Z,100160.59
2022-09-18T08:22:44.544Z,100161.09
2022-09-18T08:25:12.920Z,100167.25
2022-09-18T08:27:42.693Z,100159.41
2022-09-18T08:30:11.564Z,100166.75
2022-09-18T08:32:40.439Z,100164.59
2022-09-18T08:35:10.913Z,100159.06
2022-09-18T08:37:38.691Z,100164.59
2022-09-18T08:40:41.007Z,100168.59
2022-09-18T08:43:17.228Z,100167.63
2022-09-18T08:45:53.317Z,100162.78
2022-09-18T08:48:24.730Z,100176.13
2022-09-18T08:50:55.844Z,100163.75
2022-09-18T08:53:24.877Z,100170.44
2022-09-18T08:56:19.181Z,100161.25
2022-09-18T08:58:57.607Z,100153.75
2022-09-18T09:01:28.359Z,100165.09
2022-09-18T09:04:00.852Z,100167.09
2022-09-18T09:06:39.048Z,100154.75
2022-09-18T09:09:22.547Z,100156.56
2022-09-18T09:11:55.422Z,100160.44
2022-09-18T09:14:55.689Z,100152.41
2022-09-18T09:17:24.294Z,100147.72
2022-09-18T09:19:54.448Z,100155.09
2022-09-18T09:22:35.924Z,100146.56
2022-09-18T09:25:07.877Z,100148.38
2022-09-18T09:27:39.000Z,100151.06
2022-09-18T09:30:23.350Z,100158.91
2022-09-18T09:33:20.071Z,100143.72
2022-09-18T09:36:16.789Z,100154.41
2022-09-18T09:38:51.923Z,100153.09
2022-09-18T09:41:24.068Z,100137.06
2022-09-18T09:43:58.515Z,100140.06
2022-09-18T09:46:37.740Z,100149.91
2022-09-18T09:49:07.679Z,100138.38
2022-09-18T09:51:40.292Z,100146.22
2022-09-18T09:54:08.358Z,100150.06
2022-09-18T09:56:38.760Z,100132.19
2022-09-18T09:59:13.984Z,100138.72
2022-09-18T10:01:59.782Z,100140.06
2022-09-18T10:04:31.572Z,100140.06
2022-09-18T10:07:00.910Z,100149.06
2022-09-18T10:09:34.578Z,100140.72
2022-09-18T10:12:04.653Z,100149.75
2022-09-18T10:14:36.374Z,100143.38
2022-09-18T10:17:04.349Z,100145.06
2022-09-18T10:19:35.631Z,100140.03
2022-09-18T10:22:04.502Z,100147.06
2022-09-18T10:24:38.035Z,100144.56
2022-09-18T10:27:10.306Z,100159.06
2022-09-18T10:29:38.999Z,100161.41
2022-09-18T10:32:11.512Z,100156.72
2022-09-18T10:34:42.265Z,100158.25
2022-09-18T10:37:15.071Z,100151.75
2022-09-18T10:39:49.121Z,100147.72
2022-09-18T10:42:18.926Z,100148.88
2022-09-18T10:44:56.785Z,100135.19
2022-09-18T10:47:30.402Z,100134.06
2022-09-18T10:49:59.521Z,100131.72
2022-09-18T10:52:31.878Z,100135.19
2022-09-18T10:55:15.467Z,100127.50
2022-09-18T10:58:02.882Z,100130.34
2022-09-18T11:00:39.386Z,100122.69
2022-09-18T11:03:24.330Z,100113.66
2022-09-18T11:05:55.430Z,100129.69
2022-09-18T11:08:25.700Z,100116.00
2022-09-18T11:11:00.559Z,100125.53
2022-09-18T11:13:29.480Z,100120.84
2022-09-18T11:15:59.242Z,100113.31
2022-09-18T11:18:28.006Z,100111.66
2022-09-18T11:20:57.016Z,100111.00
2022-09-18T11:23:27.171Z,100115.84
2022-09-18T11:26:16.411Z,100111.97
2022-09-18T11:28:44.080Z,100093.94
2022-09-18T11:31:16.517Z,100111.31
2022-09-18T11:33:47.371Z,100100.31
2022-09-18T11:36:22.896Z,100098.94
2022-09-18T11:38:51.403Z,100112.84
2022-09-18T11:41:22.313Z,100122.34
2022-09-18T11:43:59.448Z,100145.56
2022-09-18T11:46:33.160Z,100142.56
2022-09-18T11:49:04.796Z,100138.19
2022-09-18T11:51:34.419Z,100130.19
2022-09-18T11:54:04.393Z,100131.88
2022-09-18T11:56:35.633Z,100128.69
2022-09-18T11:59:05.989Z,100122.00
2022-09-18T12:01:42.683Z,100114.84
2022-09-18T12:04:15.165Z,100111.84
2022-09-18T12:06:49.494Z,100105.00
2022-09-18T12:09:16.922Z,100098.63
2022-09-18T12:11:49.514Z,100082.25
2022-09-18T12:14:18.341Z,100077.41
2022-09-18T12:17:04.416Z,100068.91
2022-09-18T12:19:33.779Z,100074.91
2022-09-18T12:22:04.301Z,100077.22
2022-09-18T12:24:31.891Z,100068.03
2022-09-18T12:27:07.008Z,100065.19
2022-09-18T12:29:41.395Z,100066.69
2022-09-18T12:32:19.064Z,100078.56
2022-09-18T12:34:49.683Z,100080.91
2022-09-18T12:37:42.813Z,100075.44
2022-09-18T12:40:26.592Z,100089.28
2022-09-18T12:42:59.160Z,100090.44
2022-09-18T12:45:38.474Z,100080.13
2022-09-18T12:48:18.211Z,100061.59
2022-09-18T12:50:53.535Z,100066.22
2022-09-18T12:53:29.271Z,100067.41
2022-09-18T12:56:06.239Z,100078.41
2022-09-18T12:58:43.256Z,100069.22
2022-09-18T13:01:26.759Z,100075.72
2022-09-18T13:03:56.509Z,100071.22
2022-09-18T13:06:32.600Z,100070.84
2022-09-18T13:09:02.196Z,100076.03
2022-09-18T13:11:32.773Z,100070.84
2022-09-18T13:14:01.669Z,100066.38
2022-09-18T13:16:33.433Z,100070.53
2022-09-18T13:19:02.929Z,100069.53
2022-09-18T13:21:31.072Z,100056.34
2022-09-18T13:23:58.477Z,100062.84
2022-09-18T13:26:31.345Z,100067.69
2022-09-18T13:28:59.101Z,100065.56
2022-09-18T13:31:28.610Z,100069.38
2022-09-18T13:33:57.396Z,100066.22
2022-09-18T13:36:28.239Z,100068.25
2022-09-18T13:38:56.087Z,100070.09
2022-09-18T13:41:23.462Z,100057.88
2022-09-18T13:43:55.875Z,100060.22
2022-09-18T13:46:34.363Z,100064.22
2022-09-18T13:49:03.223Z,100057.22
2022-09-18T13:51:33.022Z,100059.91
2022-09-18T13:54:16.540Z,100057.56
2022-09-18T13:57:19.276Z,100068.25
2022-09-18T13:59:48.403Z,100066.75
2022-09-18T14:02:27.326Z,100073.09
2022-09-18T14:05:06.350Z,100068.56
2022-09-18T14:07:58.249Z,100073.25
2022-09-18T14:10:28.060Z,100074.25
2022-09-18T14:13:08.686Z,100071.78
2022-09-18T14:15:36.108Z,100056.91
2022-09-18T14:18:07.942Z,100061.41
2022-09-18T14:20:35.430Z,100061.91
2022-09-18T14:23:36.635Z,100064.91
2022-09-18T14:26:08.243Z,100070.91
2022-09-18T14:28:35.735Z,100067.59
2022-09-18T14:31:13.946Z,100069.75
2022-09-18T14:33:42.369Z,100070.91
2022-09-18T14:36:14.684Z,100068.25
2022-09-18T14:38:42.339Z,100063.94
2022-09-18T14:41:19.064Z,100072.75
2022-09-18T14:43:50.361Z,100073.75
2022-09-18T14:46:19.102Z,100081.94
2022-09-18T14:48:46.609Z,100072.94
2022-09-18T14:51:18.544Z,100066.09
2022-09-18T14:53:47.085Z,100075.28
2022-09-18T14:56:16.900Z,100084.97
2022-09-18T14:58:47.670Z,100062.56
2022-09-18T15:01:19.922Z,100069.94
2022-09-18T15:03:48.284Z,100065.41
2022-09-18T15:06:17.900Z,100071.63
2022-09-18T15:08:45.705Z,100077.28
2022-09-18T15:11:14.051Z,100075.28
2022-09-18T15:13:42.740Z,100061.91
2022-09-18T15:16:18.522Z,100066.59
2022-09-18T15:18:45.939Z,100062.56
2022-09-18T15:21:21.500Z,100061.41
2022-09-18T15:23:48.980Z,100053.91
2022-09-18T15:26:17.054Z,100061.91
2022-09-18T15:28:46.577Z,100045.72
2022-09-18T15:31:14.066Z,100057.88
2022-09-18T15:33:46.544Z,100051.72
2022-09-18T15:36:18.127Z,100042.72
2022-09-18T15:38:45.956Z,100055.88
2022-09-18T15:41:32.364Z,100040.88
2022-09-18T15:44:01.193Z,100033.69
2022-09-18T15:46:29.559Z,100032.84
2022-09-18T15:48:59.423Z,100037.84
2022-09-18T15:51:28.039Z,100040.69
2022-09-18T15:54:03.076Z,100024.84
2022-09-18T15:56:30.856Z,100026.69
2022-09-18T15:58:58.841Z,100025.81
2022-09-18T16:01:30.679Z,100027.50
2022-09-18T16:04:08.975Z,100023.81
2022-09-18T16:06:42.574Z,100034.88
2022-09-18T16:09:22.597Z,100032.19
2022-09-18T16:11:50.068Z,100029.53
2022-09-18T16:14:40.243Z,100029.69
2022-09-18T16:17:36.472Z,100028.66
2022-09-18T16:20:23.557Z,100028.84
2022-09-18T16:22:51.040Z,100025.50
2022-09-18T16:25:20.415Z,100035.53
2022-09-18T16:27:47.824Z,100028.88
2022-09-18T16:30:15.716Z,100034.88
2022-09-18T16:32:44.381Z,100032.53
2022-09-18T16:35:13.786Z,100036.88
2022-09-18T16:37:41.398Z,100029.19
2022-09-18T16:40:15.227Z,100035.03
2022-09-18T16:42:42.638Z,100037.88
2022-09-18T16:45:11.253Z,100027.53
2022-09-18T16:47:41.496Z,100028.38
2022-09-18T16:50:10.531Z,100028.38
2022-09-18T16:52:38.005Z,100024.19
2022-09-18T16:55:07.302Z,100029.53
2022-09-18T16:57:34.736Z,100034.88
2022-09-18T17:00:04.927Z,100031.22
2022-09-18T17:02:32.457Z,100030.53
2022-09-18T17:05:01.606Z,100026.19
2022-09-18T17:07:30.431Z,100035.03
2022-09-18T17:10:00.594Z,100033.19
2022-09-18T17:12:28.015Z,100039.41
2022-09-18T17:14:55.418Z,100039.56
2022-09-18T17:17:22.832Z,100045.88
2022-09-18T17:19:50.318Z,100063.59
2022-09-18T17:22:22.034Z,100079.47
2022-09-18T17:24:51.985Z,100075.94
2022-09-18T17:27:19.420Z,100052.41
2022-09-18T17:29:46.986Z,100051.22
2022-09-18T17:32:14.548Z,100051.41
2022-09-18T17:34:43.452Z,100059.41
2022-09-18T17:37:10.964Z,100058.59
2022-09-18T17:39:38.420Z,100059.56
2022-09-18T17:42:07.324Z,100060.59
2022-09-18T17:44:35.356Z,100061.41
2022-09-18T17:47:03.112Z,100051.56
2022-09-18T17:49:31.191Z,100055.25
2022-09-18T17:51:58.632Z,100054.44
2022-09-18T17:54:26.087Z,100063.44
2022-09-18T17:56:53.540Z,100059.78
2022-09-18T17:59:22.327Z,100064.25
2022-09-18T18:01:50.473Z,100054.44
2022-09-18T18:04:18.036Z,100064.59
2022-09-18T18:06:47.526Z,100059.06
2022-09-18T18:09:15.136Z,100059.25
2022-09-18T18:11:44.163Z,100061.91
2022-09-18T18:14:12.178Z,100060.44
2022-09-18T18:16:41.290Z,100073.63
2022-09-18T18:19:12.032Z,100067.44
2022-09-18T18:21:40.274Z,100078.63
2022-09-18T18:24:09.807Z,100078.94
2022-09-18T18:26:37.675Z,100080.81
2022-09-18T18:29:06.428Z,100086.31
2022-09-18T18:31:34.009Z,100087.13
2022-09-18T18:34:02.844Z,100084.63
2022-09-18T18:36:31.058Z,100094.16
2022-09-18T18:38:59.132Z,100102.31
2022-09-18T18:41:27.967Z,100092.78
2022-09-18T18:43:56.219Z,100092.63
2022-09-18T18:46:24.374Z,100091.97
2022-09-18T18:48:54.824Z,100091.66
2022-09-18T18:51:24.060Z,100085.44
2022-09-18T18:53:55.148Z,100078.47
2022-09-18T18:56:22.858Z,100077.97
2022-09-18T18:58:50.591Z,100069.94
2022-09-18T19:01:18.782Z,100068.09
2022-09-18T19:03:51.091Z,100069.78
2022-09-18T19:06:18.638Z,100074.63
2022-09-18T19:08:47.881Z,100074.63
2022-09-18T19:11:15.964Z,100075.13
2022-09-18T19:13:44.514Z,100076.28
2022-09-18T19:16:12.341Z,100086.97
2022-09-18T19:18:40.007Z,100086.97
2022-09-18T19:21:07.921Z,100082.28
2022-09-18T19:23:35.556Z,100078.25
2022-09-18T19:26:04.395Z,100078.25
2022-09-18T19:28:31.813Z,100075.59
2022-09-18T19:31:03.969Z,100080.09
2022-09-18T19:33:31.926Z,100087.97
2022-09-18T19:36:03.207Z,100079.09
2022-09-18T19:38:32.702Z,100079.97
2022-09-18T19:41:00.192Z,100080.09
2022-09-18T19:43:30.937Z,100083.31
2022-09-18T19:45:58.439Z,100081.78
2022-09-18T19:48:26.767Z,100081.91
2022-09-18T19:50:54.480Z,100079.09
2022-09-18T19:53:22.146Z,100076.72
2022-09-18T19:55:49.658Z,100075.91
2022-09-18T19:58:17.271Z,100080.25
2022-09-18T20:00:46.034Z,100074.25
2022-09-18T20:03:14.493Z,100084.94
2022-09-18T20:05:42.330Z,100079.25
2022-09-18T20:08:09.813Z,100079.41
2022-09-18T20:10:38.624Z,100074.06
2022-09-18T20:13:06.219Z,100074.91
2022-09-18T20:15:33.670Z,100084.75
2022-09-18T20:18:02.420Z,100083.91
2022-09-18T20:20:30.316Z,100073.72
2022-09-18T20:22:57.777Z,100080.59
2022-09-18T20:25:25.930Z,100082.25
2022-09-18T20:27:53.370Z,100078.91
2022-09-18T20:30:21.366Z,100084.75
2022-09-18T20:32:48.872Z,100082.59
2022-09-18T20:35:18.258Z,100078.06
2022-09-18T20:37:45.755Z,100080.59
2022-09-18T20:40:13.338Z,100083.41
2022-09-18T20:42:40.817Z,100089.59
2022-09-18T20:45:08.688Z,100083.75
2022-09-18T20:47:36.898Z,100078.41
2022-09-18T20:50:06.717Z,100079.06
2022-09-18T20:52:39.231Z,100075.56
2022-09-18T20:55:08.770Z,100079.25
2022-09-18T20:57:36.940Z,100087.25
2022-09-18T21:00:05.353Z,100091.59
2022-09-18T21:02:35.294Z,100081.94
2022-09-18T21:05:04.243Z,100092.59
2022-09-18T21:07:32.338Z,100084.91
2022-09-18T21:10:01.343Z,100084.75
2022-09-18T21:12:29.206Z,100088.09
2022-09-18T21:14:56.651Z,100086.56
2022-09-18T21:17:24.162Z,100079.59
2022-09-18T21:19:51.609Z,100079.41
2022-09-18T21:22:19.110Z,100079.59
2022-09-18T21:24:46.710Z,100082.91
2022-09-18T21:27:15.473Z,100084.91
2022-09-18T21:29:42.933Z,100084.06
2022-09-18T21:32:12.012Z,100083.25
2022-09-18T21:34:44.015Z,100082.41
2022-09-18T21:37:12.079Z,100084.91
2022-09-18T21:39:39.960Z,100078.56
2022-09-18T21:42:08.228Z,100078.72
2022-09-18T21:44:37.671Z,100080.72
2022-09-18T21:47:06.192Z,100083.25
2022-09-18T21:49:33.636Z,100078.56
2022-09-18T21:52:02.060Z,100084.91
2022-09-18T21:54:30.243Z,100071.75
2022-09-18T21:56:57.659Z,100081.41
2022-09-18T21:59:26.095Z,100072.56
2022-09-18T22:01:55.379Z,100081.59
2022-09-18T22:04:23.087Z,100076.25
2022-09-18T22:06:50.554Z,100084.25
2022-09-18T22:09:19.941Z,100080.06
2022-09-18T22:11:47.871Z,100092.25
2022-09-18T22:14:16.731Z,100084.41
2022-09-18T22:16:45.539Z,100084.59
2022-09-18T22:19:14.218Z,100081.06
2022-09-18T22:21:42.891Z,100072.72
2022-09-18T22:24:11.563Z,100082.75
2022-09-18T22:26:39.825Z,100076.56
2022-09-18T22:29:07.921Z,100083.56
2022-09-18T22:31:35.476Z,100087.25
2022-09-18T22:34:02.967Z,100080.06
2022-09-18T22:36:31.680Z,100092.59
2022-09-18T22:38:59.087Z,100085.56
2022-09-18T22:41:26.578Z,100090.09
2022-09-18T22:43:54.925Z,100087.25
2022-09-18T22:46:22.498Z,100088.25
2022-09-18T22:48:50.148Z,100088.91
2022-09-18T22:51:18.441Z,100099.94
2022-09-18T22:53:50.095Z,100096.25
2022-09-18T22:56:17.704Z,100099.22
2022-09-18T22:58:45.148Z,100100.91
2022-09-18T23:01:13.638Z,100099.06
2022-09-18T23:03:41.051Z,100094.75
2022-09-18T23:06:08.873Z,100098.25
2022-09-18T23:08:36.315Z,100106.25
2022-09-18T23:11:07.039Z,100103.91
2022-09-18T23:13:35.228Z,100106.59
2022-09-18T23:16:04.481Z,100106.41
2022-09-18T23:18:31.939Z,100107.25
2022-09-18T23:21:03.264Z,100101.91
2022-09-18T23:23:31.449Z,100098.25
2022-09-18T23:26:05.248Z,100101.09
2022-09-18T23:28:33.952Z,100114.59
2022-09-18T23:31:05.819Z,100106.59
2022-09-18T23:33:33.262Z,100109.25
2022-09-18T23:36:08.460Z,100107.75
2022-09-18T23:38:35.952Z,100115.75
2022-09-18T23:41:05.643Z,100110.06
2022-09-18T23:43:33.050Z,100113.44
2022-09-18T23:46:00.507Z,100113.75
2022-09-18T23:48:28.270Z,100112.25
2022-09-18T23:50:55.854Z,100120.09
2022-09-18T23:53:24.117Z,100122.91
2022-09-18T23:55:51.559Z,100115.59
2022-09-18T23:58:20.229Z,100122.91
